sensor_id;sensor_type;location;lat;lon;timestamp;P1;durP1;ratioP1;P2;durP2;ratioP2
1404;SDS011;697;51.114;6.542;2022-12-29T00:01:43;0.87;;;0.50;;
1404;SDS011;697;51.114;6.542;2022-12-29T00:04:12;0.53;;;0.50;;
1404;SDS011;697;51.114;6.542;2022-12-29T00:06:40;0.93;;;0.70;;
1404;SDS011;697;51.114;6.542;2022-12-29T00:09:08;1.20;;;0.67;;
1404;SDS011;697;51.114;6.542;2022-12-29T00:11:36;0.50;;;0.47;;
1404;SDS011;697;51.114;6.542;2022-12-29T00:14:03;0.90;;;0.40;;
1404;SDS011;697;51.114;6.542;2022-12-29T00:16:47;1.00;;;0.30;;
1404;SDS011;697;51.114;6.542;2022-12-29T00:19:15;0.60;;;0.60;;
1404;SDS011;697;51.114;6.542;2022-12-29T00:21:59;0.73;;;0.40;;
1404;SDS011;697;51.114;6.542;2022-12-29T00:24:43;0.50;;;0.50;;
1404;SDS011;697;51.114;6.542;2022-12-29T00:27:28;1.00;;;0.70;;
1404;SDS011;697;51.114;6.542;2022-12-29T00:30:14;0.50;;;0.50;;
1404;SDS011;697;51.114;6.542;2022-12-29T00:32:59;0.90;;;0.50;;
1404;SDS011;697;51.114;6.542;2022-12-29T00:35:45;0.87;;;0.50;;
1404;SDS011;697;51.114;6.542;2022-12-29T00:38:19;0.70;;;0.60;;
1404;SDS011;697;51.114;6.542;2022-12-29T00:41:05;0.60;;;0.50;;
1404;SDS011;697;51.114;6.542;2022-12-29T00:43:49;0.90;;;0.53;;
1404;SDS011;697;51.114;6.542;2022-12-29T00:46:35;1.03;;;0.50;;
1404;SDS011;697;51.114;6.542;2022-12-29T00:49:04;1.13;;;0.50;;
1404;SDS011;697;51.114;6.542;2022-12-29T00:51:51;2.60;;;0.53;;
1404;SDS011;697;51.114;6.542;2022-12-29T00:54:18;0.73;;;0.73;;
1404;SDS011;697;51.114;6.542;2022-12-29T00:56:45;3.27;;;0.63;;
1404;SDS011;697;51.114;6.542;2022-12-29T00:59:12;1.90;;;0.40;;
1404;SDS011;697;51.114;6.542;2022-12-29T01:01:39;0.50;;;0.40;;
1404;SDS011;697;51.114;6.542;2022-12-29T01:04:07;0.70;;;0.40;;
1404;SDS011;697;51.114;6.542;2022-12-29T01:06:36;0.40;;;0.40;;
1404;SDS011;697;51.114;6.542;2022-12-29T01:09:06;0.80;;;0.40;;
1404;SDS011;697;51.114;6.542;2022-12-29T01:11:51;1.23;;;0.40;;
1404;SDS011;697;51.114;6.542;2022-12-29T01:14:18;0.63;;;0.30;;
1404;SDS011;697;51.114;6.542;2022-12-29T01:16:46;1.50;;;0.40;;
1404;SDS011;697;51.114;6.542;2022-12-29T01:19:13;0.40;;;0.30;;
1404;SDS011;697;51.114;6.542;2022-12-29T01:21:41;0.50;;;0.30;;
1404;SDS011;697;51.114;6.542;2022-12-29T01:24:09;0.77;;;0.50;;
1404;SDS011;697;51.114;6.542;2022-12-29T01:26:35;0.40;;;0.30;;
1404;SDS011;697;51.114;6.542;2022-12-29T01:29:02;0.77;;;0.30;;
1404;SDS011;697;51.114;6.542;2022-12-29T01:31:29;2.10;;;0.50;;
1404;SDS011;697;51.114;6.542;2022-12-29T01:33:56;1.00;;;0.50;;
1404;SDS011;697;51.114;6.542;2022-12-29T01:36:23;0.87;;;0.50;;
1404;SDS011;697;51.114;6.542;2022-12-29T01:38:50;1.43;;;0.67;;
1404;SDS011;697;51.114;6.542;2022-12-29T01:41:19;1.90;;;0.60;;
1404;SDS011;697;51.114;6.542;2022-12-29T01:43:46;0.60;;;0.60;;
1404;SDS011;697;51.114;6.542;2022-12-29T01:46:22;2.07;;;0.87;;
1404;SDS011;697;51.114;6.542;2022-12-29T01:48:52;0.77;;;0.70;;
1404;SDS011;697;51.114;6.542;2022-12-29T01:51:24;1.30;;;0.80;;
1404;SDS011;697;51.114;6.542;2022-12-29T01:53:52;2.43;;;0.83;;
1404;SDS011;697;51.114;6.542;2022-12-29T01:56:23;1.53;;;0.97;;
1404;SDS011;697;51.114;6.542;2022-12-29T01:59:02;3.23;;;0.80;;
1404;SDS011;697;51.114;6.542;2022-12-29T02:01:32;1.83;;;0.90;;
1404;SDS011;697;51.114;6.542;2022-12-29T02:03:59;1.17;;;0.60;;
1404;SDS011;697;51.114;6.542;2022-12-29T02:06:26;1.30;;;0.67;;
1404;SDS011;697;51.114;6.542;2022-12-29T02:08:58;1.10;;;0.70;;
1404;SDS011;697;51.114;6.542;2022-12-29T02:11:27;4.43;;;0.77;;
1404;SDS011;697;51.114;6.542;2022-12-29T02:13:55;2.00;;;0.80;;
1404;SDS011;697;51.114;6.542;2022-12-29T02:16:28;1.00;;;0.73;;
1404;SDS011;697;51.114;6.542;2022-12-29T02:19:05;1.17;;;0.83;;
1404;SDS011;697;51.114;6.542;2022-12-29T02:22:03;2.87;;;0.70;;
1404;SDS011;697;51.114;6.542;2022-12-29T02:27:53;1.33;;;0.70;;
1404;SDS011;697;51.114;6.542;2022-12-29T02:30:45;0.90;;;0.67;;
1404;SDS011;697;51.114;6.542;2022-12-29T02:33:28;1.40;;;1.30;;
1404;SDS011;697;51.114;6.542;2022-12-29T02:36:06;1.53;;;0.70;;
1404;SDS011;697;51.114;6.542;2022-12-29T02:38:43;2.63;;;1.00;;
1404;SDS011;697;51.114;6.542;2022-12-29T02:41:19;0.93;;;0.70;;
1404;SDS011;697;51.114;6.542;2022-12-29T02:43:49;0.80;;;0.70;;
1404;SDS011;697;51.114;6.542;2022-12-29T02:46:23;1.17;;;0.70;;
1404;SDS011;697;51.114;6.542;2022-12-29T02:48:54;1.80;;;0.90;;
1404;SDS011;697;51.114;6.542;2022-12-29T02:51:34;1.40;;;0.90;;
1404;SDS011;697;51.114;6.542;2022-12-29T02:54:05;1.87;;;0.87;;
1404;SDS011;697;51.114;6.542;2022-12-29T02:56:50;0.53;;;0.53;;
1404;SDS011;697;51.114;6.542;2022-12-29T02:59:17;3.13;;;0.80;;
1404;SDS011;697;51.114;6.542;2022-12-29T03:01:55;2.80;;;0.87;;
1404;SDS011;697;51.114;6.542;2022-12-29T03:07:43;2.53;;;0.90;;
1404;SDS011;697;51.114;6.542;2022-12-29T03:10:19;0.93;;;0.70;;
1404;SDS011;697;51.114;6.542;2022-12-29T03:13:00;3.10;;;0.60;;
1404;SDS011;697;51.114;6.542;2022-12-29T03:15:50;1.27;;;0.60;;
1404;SDS011;697;51.114;6.542;2022-12-29T03:18:32;4.33;;;0.90;;
1404;SDS011;697;51.114;6.542;2022-12-29T03:21:06;1.80;;;0.90;;
1404;SDS011;697;51.114;6.542;2022-12-29T03:23:36;2.00;;;0.60;;
1404;SDS011;697;51.114;6.542;2022-12-29T03:26:06;1.13;;;0.67;;
1404;SDS011;697;51.114;6.542;2022-12-29T03:28:38;2.10;;;0.60;;
1404;SDS011;697;51.114;6.542;2022-12-29T03:31:08;3.03;;;0.70;;
1404;SDS011;697;51.114;6.542;2022-12-29T03:33:37;1.80;;;0.80;;
1404;SDS011;697;51.114;6.542;2022-12-29T03:36:06;1.13;;;0.70;;
1404;SDS011;697;51.114;6.542;2022-12-29T03:38:37;2.27;;;0.77;;
1404;SDS011;697;51.114;6.542;2022-12-29T03:41:10;2.10;;;0.50;;
1404;SDS011;697;51.114;6.542;2022-12-29T03:43:41;0.57;;;0.30;;
1404;SDS011;697;51.114;6.542;2022-12-29T03:46:08;1.03;;;0.53;;
1404;SDS011;697;51.114;6.542;2022-12-29T03:48:35;0.60;;;0.60;;
1404;SDS011;697;51.114;6.542;2022-12-29T03:51:03;0.43;;;0.40;;
1404;SDS011;697;51.114;6.542;2022-12-29T03:53:30;0.80;;;0.40;;
1404;SDS011;697;51.114;6.542;2022-12-29T03:55:57;1.67;;;0.50;;
1404;SDS011;697;51.114;6.542;2022-12-29T03:58:24;1.60;;;0.63;;
1404;SDS011;697;51.114;6.542;2022-12-29T04:00:50;1.00;;;0.63;;
1404;SDS011;697;51.114;6.542;2022-12-29T04:03:17;0.60;;;0.60;;
1404;SDS011;697;51.114;6.542;2022-12-29T04:05:44;0.83;;;0.60;;
1404;SDS011;697;51.114;6.542;2022-12-29T04:08:12;2.63;;;0.70;;
1404;SDS011;697;51.114;6.542;2022-12-29T04:10:39;1.23;;;0.70;;
1404;SDS011;697;51.114;6.542;2022-12-29T04:13:06;1.77;;;0.60;;
1404;SDS011;697;51.114;6.542;2022-12-29T04:15:33;0.73;;;0.60;;
1404;SDS011;697;51.114;6.542;2022-12-29T04:18:00;5.37;;;0.77;;
1404;SDS011;697;51.114;6.542;2022-12-29T04:20:26;1.17;;;0.60;;
1404;SDS011;697;51.114;6.542;2022-12-29T04:23:07;1.27;;;0.60;;
1404;SDS011;697;51.114;6.542;2022-12-29T04:25:35;1.57;;;0.90;;
1404;SDS011;697;51.114;6.542;2022-12-29T04:28:02;4.23;;;0.50;;
1404;SDS011;697;51.114;6.542;2022-12-29T04:30:30;1.03;;;0.93;;
1404;SDS011;697;51.114;6.542;2022-12-29T04:32:57;0.50;;;0.50;;
1404;SDS011;697;51.114;6.542;2022-12-29T04:35:24;2.47;;;0.80;;
1404;SDS011;697;51.114;6.542;2022-12-29T04:37:50;1.67;;;0.67;;
1404;SDS011;697;51.114;6.542;2022-12-29T04:40:17;0.77;;;0.60;;
1404;SDS011;697;51.114;6.542;2022-12-29T04:42:45;1.00;;;0.70;;
1404;SDS011;697;51.114;6.542;2022-12-29T04:45:12;1.33;;;0.80;;
1404;SDS011;697;51.114;6.542;2022-12-29T04:47:39;2.37;;;0.70;;
1404;SDS011;697;51.114;6.542;2022-12-29T04:50:06;2.20;;;0.60;;
1404;SDS011;697;51.114;6.542;2022-12-29T04:52:34;1.90;;;0.80;;
1404;SDS011;697;51.114;6.542;2022-12-29T04:55:01;3.00;;;0.80;;
1404;SDS011;697;51.114;6.542;2022-12-29T04:57:29;1.00;;;0.63;;
1404;SDS011;697;51.114;6.542;2022-12-29T04:59:57;0.70;;;0.60;;
1404;SDS011;697;51.114;6.542;2022-12-29T05:02:24;3.40;;;0.70;;
1404;SDS011;697;51.114;6.542;2022-12-29T05:04:51;1.80;;;0.60;;
1404;SDS011;697;51.114;6.542;2022-12-29T05:07:18;1.80;;;0.80;;
1404;SDS011;697;51.114;6.542;2022-12-29T05:09:45;3.03;;;0.90;;
1404;SDS011;697;51.114;6.542;2022-12-29T05:12:14;1.13;;;0.97;;
1404;SDS011;697;51.114;6.542;2022-12-29T05:14:40;3.90;;;0.57;;
1404;SDS011;697;51.114;6.542;2022-12-29T05:17:09;3.73;;;0.80;;
1404;SDS011;697;51.114;6.542;2022-12-29T05:19:35;2.83;;;0.67;;
1404;SDS011;697;51.114;6.542;2022-12-29T05:22:04;3.40;;;0.87;;
1404;SDS011;697;51.114;6.542;2022-12-29T05:24:31;1.70;;;0.70;;
1404;SDS011;697;51.114;6.542;2022-12-29T05:26:57;2.60;;;0.90;;
1404;SDS011;697;51.114;6.542;2022-12-29T05:29:24;1.53;;;0.80;;
1404;SDS011;697;51.114;6.542;2022-12-29T05:31:51;2.50;;;0.80;;
1404;SDS011;697;51.114;6.542;2022-12-29T05:34:19;1.17;;;0.90;;
1404;SDS011;697;51.114;6.542;2022-12-29T05:36:46;6.97;;;0.97;;
1404;SDS011;697;51.114;6.542;2022-12-29T05:39:13;1.37;;;0.83;;
1404;SDS011;697;51.114;6.542;2022-12-29T05:41:39;1.33;;;0.57;;
1404;SDS011;697;51.114;6.542;2022-12-29T05:44:06;2.20;;;0.63;;
1404;SDS011;697;51.114;6.542;2022-12-29T05:46:33;2.43;;;0.80;;
1404;SDS011;697;51.114;6.542;2022-12-29T05:49:00;2.07;;;0.53;;
1404;SDS011;697;51.114;6.542;2022-12-29T05:51:28;2.90;;;0.90;;
1404;SDS011;697;51.114;6.542;2022-12-29T05:53:55;4.10;;;0.83;;
1404;SDS011;697;51.114;6.542;2022-12-29T05:56:25;10.80;;;1.00;;
1404;SDS011;697;51.114;6.542;2022-12-29T05:58:52;2.93;;;0.83;;
1404;SDS011;697;51.114;6.542;2022-12-29T06:01:19;2.30;;;0.90;;
1404;SDS011;697;51.114;6.542;2022-12-29T06:03:45;3.43;;;0.67;;
1404;SDS011;697;51.114;6.542;2022-12-29T06:06:12;2.63;;;0.70;;
1404;SDS011;697;51.114;6.542;2022-12-29T06:08:40;1.53;;;1.27;;
1404;SDS011;697;51.114;6.542;2022-12-29T06:11:07;3.93;;;0.57;;
1404;SDS011;697;51.114;6.542;2022-12-29T06:13:34;5.10;;;1.00;;
1404;SDS011;697;51.114;6.542;2022-12-29T06:16:01;2.23;;;0.77;;
1404;SDS011;697;51.114;6.542;2022-12-29T06:18:28;1.53;;;0.80;;
1404;SDS011;697;51.114;6.542;2022-12-29T06:20:58;3.17;;;0.77;;
1404;SDS011;697;51.114;6.542;2022-12-29T06:23:26;3.13;;;0.80;;
1404;SDS011;697;51.114;6.542;2022-12-29T06:25:54;3.70;;;1.37;;
1404;SDS011;697;51.114;6.542;2022-12-29T06:28:22;4.10;;;0.90;;
1404;SDS011;697;51.114;6.542;2022-12-29T06:30:49;3.50;;;0.60;;
1404;SDS011;697;51.114;6.542;2022-12-29T06:33:16;1.43;;;0.63;;
1404;SDS011;697;51.114;6.542;2022-12-29T06:35:42;1.37;;;0.70;;
1404;SDS011;697;51.114;6.542;2022-12-29T06:38:10;0.93;;;0.60;;
1404;SDS011;697;51.114;6.542;2022-12-29T06:40:37;3.40;;;1.00;;
1404;SDS011;697;51.114;6.542;2022-12-29T06:43:06;3.87;;;1.07;;
1404;SDS011;697;51.114;6.542;2022-12-29T06:45:32;5.33;;;1.03;;
1404;SDS011;697;51.114;6.542;2022-12-29T06:47:59;4.50;;;1.43;;
1404;SDS011;697;51.114;6.542;2022-12-29T06:50:26;8.33;;;0.80;;
1404;SDS011;697;51.114;6.542;2022-12-29T06:52:53;2.30;;;0.70;;
1404;SDS011;697;51.114;6.542;2022-12-29T06:55:20;2.93;;;0.90;;
1404;SDS011;697;51.114;6.542;2022-12-29T06:57:47;2.40;;;0.80;;
1404;SDS011;697;51.114;6.542;2022-12-29T07:00:16;2.40;;;0.63;;
1404;SDS011;697;51.114;6.542;2022-12-29T07:02:43;3.07;;;0.63;;
1404;SDS011;697;51.114;6.542;2022-12-29T07:05:10;1.90;;;0.70;;
1404;SDS011;697;51.114;6.542;2022-12-29T07:07:38;3.63;;;0.97;;
1404;SDS011;697;51.114;6.542;2022-12-29T07:10:05;2.70;;;0.73;;
1404;SDS011;697;51.114;6.542;2022-12-29T07:12:32;5.93;;;0.70;;
1404;SDS011;697;51.114;6.542;2022-12-29T07:14:59;2.10;;;0.80;;
1404;SDS011;697;51.114;6.542;2022-12-29T07:17:27;3.73;;;0.87;;
1404;SDS011;697;51.114;6.542;2022-12-29T07:19:54;4.40;;;1.47;;
1404;SDS011;697;51.114;6.542;2022-12-29T07:22:21;2.10;;;0.60;;
1404;SDS011;697;51.114;6.542;2022-12-29T07:24:48;2.83;;;0.90;;
1404;SDS011;697;51.114;6.542;2022-12-29T07:27:15;2.83;;;1.00;;
1404;SDS011;697;51.114;6.542;2022-12-29T07:29:41;2.00;;;0.60;;
1404;SDS011;697;51.114;6.542;2022-12-29T07:32:08;2.40;;;0.57;;
1404;SDS011;697;51.114;6.542;2022-12-29T07:34:36;5.17;;;1.10;;
1404;SDS011;697;51.114;6.542;2022-12-29T07:37:07;4.57;;;0.90;;
1404;SDS011;697;51.114;6.542;2022-12-29T07:39:34;3.60;;;0.93;;
1404;SDS011;697;51.114;6.542;2022-12-29T07:42:01;1.57;;;0.77;;
1404;SDS011;697;51.114;6.542;2022-12-29T07:44:28;2.70;;;1.37;;
1404;SDS011;697;51.114;6.542;2022-12-29T07:46:54;3.60;;;1.13;;
1404;SDS011;697;51.114;6.542;2022-12-29T07:49:21;3.13;;;0.77;;
1404;SDS011;697;51.114;6.542;2022-12-29T07:51:49;8.40;;;1.23;;
1404;SDS011;697;51.114;6.542;2022-12-29T07:54:17;2.00;;;0.80;;
1404;SDS011;697;51.114;6.542;2022-12-29T07:56:44;2.40;;;0.80;;
1404;SDS011;697;51.114;6.542;2022-12-29T07:59:10;4.30;;;1.00;;
1404;SDS011;697;51.114;6.542;2022-12-29T08:01:38;2.77;;;0.83;;
1404;SDS011;697;51.114;6.542;2022-12-29T08:04:05;1.90;;;1.30;;
1404;SDS011;697;51.114;6.542;2022-12-29T08:06:32;3.53;;;1.00;;
1404;SDS011;697;51.114;6.542;2022-12-29T08:09:00;3.27;;;0.83;;
1404;SDS011;697;51.114;6.542;2022-12-29T08:11:27;5.70;;;1.53;;
1404;SDS011;697;51.114;6.542;2022-12-29T08:13:54;3.83;;;0.67;;
1404;SDS011;697;51.114;6.542;2022-12-29T08:16:21;5.63;;;1.30;;
1404;SDS011;697;51.114;6.542;2022-12-29T08:18:48;7.30;;;1.50;;
1404;SDS011;697;51.114;6.542;2022-12-29T08:21:15;3.80;;;0.80;;
1404;SDS011;697;51.114;6.542;2022-12-29T08:23:42;21.63;;;2.90;;
1404;SDS011;697;51.114;6.542;2022-12-29T08:26:10;12.37;;;1.53;;
1404;SDS011;697;51.114;6.542;2022-12-29T08:28:37;4.40;;;0.90;;
1404;SDS011;697;51.114;6.542;2022-12-29T08:31:04;3.43;;;0.97;;
1404;SDS011;697;51.114;6.542;2022-12-29T08:33:31;2.63;;;1.33;;
1404;SDS011;697;51.114;6.542;2022-12-29T08:35:58;3.97;;;1.13;;
1404;SDS011;697;51.114;6.542;2022-12-29T08:38:27;4.30;;;2.17;;
1404;SDS011;697;51.114;6.542;2022-12-29T08:40:57;2.60;;;1.20;;
1404;SDS011;697;51.114;6.542;2022-12-29T08:43:27;7.43;;;1.60;;
1404;SDS011;697;51.114;6.542;2022-12-29T08:45:54;2.83;;;1.20;;
1404;SDS011;697;51.114;6.542;2022-12-29T08:48:22;3.93;;;1.30;;
1404;SDS011;697;51.114;6.542;2022-12-29T08:50:50;4.83;;;2.30;;
1404;SDS011;697;51.114;6.542;2022-12-29T08:53:17;6.90;;;1.70;;
1404;SDS011;697;51.114;6.542;2022-12-29T08:55:44;4.87;;;1.30;;
1404;SDS011;697;51.114;6.542;2022-12-29T08:58:11;3.80;;;1.33;;
1404;SDS011;697;51.114;6.542;2022-12-29T09:00:43;7.83;;;1.40;;
1404;SDS011;697;51.114;6.542;2022-12-29T09:03:10;6.73;;;1.30;;
1404;SDS011;697;51.114;6.542;2022-12-29T09:05:36;4.07;;;0.90;;
1404;SDS011;697;51.114;6.542;2022-12-29T09:08:03;6.30;;;1.20;;
1404;SDS011;697;51.114;6.542;2022-12-29T09:10:30;6.80;;;1.63;;
1404;SDS011;697;51.114;6.542;2022-12-29T09:12:58;5.13;;;0.90;;
1404;SDS011;697;51.114;6.542;2022-12-29T09:15:25;3.80;;;1.03;;
1404;SDS011;697;51.114;6.542;2022-12-29T09:17:53;3.70;;;0.97;;
1404;SDS011;697;51.114;6.542;2022-12-29T09:20:20;3.87;;;1.13;;
1404;SDS011;697;51.114;6.542;2022-12-29T09:22:47;5.90;;;1.30;;
1404;SDS011;697;51.114;6.542;2022-12-29T09:25:14;3.73;;;1.30;;
1404;SDS011;697;51.114;6.542;2022-12-29T09:27:44;6.30;;;1.50;;
1404;SDS011;697;51.114;6.542;2022-12-29T09:30:14;5.00;;;1.50;;
1404;SDS011;697;51.114;6.542;2022-12-29T09:32:41;4.80;;;1.33;;
1404;SDS011;697;51.114;6.542;2022-12-29T09:35:09;4.93;;;1.07;;
1404;SDS011;697;51.114;6.542;2022-12-29T09:37:36;5.33;;;1.30;;
1404;SDS011;697;51.114;6.542;2022-12-29T09:40:03;6.60;;;2.80;;
1404;SDS011;697;51.114;6.542;2022-12-29T09:42:32;5.33;;;1.40;;
1404;SDS011;697;51.114;6.542;2022-12-29T09:45:07;3.30;;;1.43;;
1404;SDS011;697;51.114;6.542;2022-12-29T09:47:39;6.47;;;1.30;;
1404;SDS011;697;51.114;6.542;2022-12-29T09:50:10;5.57;;;1.10;;
1404;SDS011;697;51.114;6.542;2022-12-29T09:52:47;5.27;;;1.53;;
1404;SDS011;697;51.114;6.542;2022-12-29T09:55:19;3.50;;;1.17;;
1404;SDS011;697;51.114;6.542;2022-12-29T09:57:49;7.43;;;1.47;;
1404;SDS011;697;51.114;6.542;2022-12-29T10:00:23;6.60;;;1.60;;
1404;SDS011;697;51.114;6.542;2022-12-29T10:02:59;8.77;;;1.60;;
1404;SDS011;697;51.114;6.542;2022-12-29T10:05:34;9.40;;;2.50;;
1404;SDS011;697;51.114;6.542;2022-12-29T10:08:17;5.90;;;1.40;;
1404;SDS011;697;51.114;6.542;2022-12-29T10:10:53;7.90;;;1.80;;
1404;SDS011;697;51.114;6.542;2022-12-29T10:13:26;5.97;;;1.73;;
1404;SDS011;697;51.114;6.542;2022-12-29T10:16:02;4.47;;;1.50;;
1404;SDS011;697;51.114;6.542;2022-12-29T10:18:43;14.93;;;3.50;;
1404;SDS011;697;51.114;6.542;2022-12-29T10:21:34;9.20;;;2.07;;
1404;SDS011;697;51.114;6.542;2022-12-29T10:24:11;6.17;;;1.73;;
1404;SDS011;697;51.114;6.542;2022-12-29T10:26:40;8.30;;;1.57;;
1404;SDS011;697;51.114;6.542;2022-12-29T10:29:11;9.47;;;1.97;;
1404;SDS011;697;51.114;6.542;2022-12-29T10:31:43;6.33;;;1.40;;
1404;SDS011;697;51.114;6.542;2022-12-29T10:34:14;7.60;;;1.60;;
1404;SDS011;697;51.114;6.542;2022-12-29T10:36:47;9.47;;;1.40;;
1404;SDS011;697;51.114;6.542;2022-12-29T10:39:16;11.60;;;1.30;;
1404;SDS011;697;51.114;6.542;2022-12-29T10:41:50;10.97;;;2.00;;
1404;SDS011;697;51.114;6.542;2022-12-29T10:44:22;5.10;;;1.27;;
1404;SDS011;697;51.114;6.542;2022-12-29T10:46:55;7.20;;;1.57;;
1404;SDS011;697;51.114;6.542;2022-12-29T10:49:26;4.93;;;1.23;;
1404;SDS011;697;51.114;6.542;2022-12-29T10:51:58;11.13;;;1.80;;
1404;SDS011;697;51.114;6.542;2022-12-29T10:54:29;13.23;;;1.90;;
1404;SDS011;697;51.114;6.542;2022-12-29T10:57:00;4.90;;;1.60;;
1404;SDS011;697;51.114;6.542;2022-12-29T10:59:31;10.77;;;1.60;;
1404;SDS011;697;51.114;6.542;2022-12-29T11:02:06;8.87;;;1.97;;
1404;SDS011;697;51.114;6.542;2022-12-29T11:04:53;11.07;;;2.30;;
1404;SDS011;697;51.114;6.542;2022-12-29T11:07:28;7.17;;;1.40;;
1404;SDS011;697;51.114;6.542;2022-12-29T11:10:03;7.13;;;1.27;;
1404;SDS011;697;51.114;6.542;2022-12-29T11:12:54;10.90;;;1.90;;
1404;SDS011;697;51.114;6.542;2022-12-29T11:15:22;10.80;;;2.40;;
1404;SDS011;697;51.114;6.542;2022-12-29T11:17:50;10.57;;;2.30;;
1404;SDS011;697;51.114;6.542;2022-12-29T11:20:19;7.97;;;1.57;;
1404;SDS011;697;51.114;6.542;2022-12-29T11:22:59;13.73;;;2.10;;
1404;SDS011;697;51.114;6.542;2022-12-29T11:25:26;17.20;;;3.20;;
1404;SDS011;697;51.114;6.542;2022-12-29T11:27:57;10.50;;;1.60;;
1404;SDS011;697;51.114;6.542;2022-12-29T11:30:27;17.20;;;3.00;;
1404;SDS011;697;51.114;6.542;2022-12-29T11:32:55;20.23;;;2.40;;
1404;SDS011;697;51.114;6.542;2022-12-29T11:35:29;20.70;;;2.43;;
1404;SDS011;697;51.114;6.542;2022-12-29T11:37:59;12.07;;;1.70;;
1404;SDS011;697;51.114;6.542;2022-12-29T11:40:27;8.27;;;1.53;;
1404;SDS011;697;51.114;6.542;2022-12-29T11:42:55;5.70;;;1.97;;
1404;SDS011;697;51.114;6.542;2022-12-29T11:45:27;12.40;;;1.90;;
1404;SDS011;697;51.114;6.542;2022-12-29T11:47:58;8.73;;;2.07;;
1404;SDS011;697;51.114;6.542;2022-12-29T11:50:33;7.23;;;3.20;;
1404;SDS011;697;51.114;6.542;2022-12-29T11:53:13;14.90;;;2.80;;
1404;SDS011;697;51.114;6.542;2022-12-29T11:55:50;5.70;;;1.50;;
1404;SDS011;697;51.114;6.542;2022-12-29T11:58:19;8.93;;;1.30;;
1404;SDS011;697;51.114;6.542;2022-12-29T12:00:46;11.37;;;1.83;;
1404;SDS011;697;51.114;6.542;2022-12-29T12:03:16;11.43;;;1.93;;
1404;SDS011;697;51.114;6.542;2022-12-29T12:05:47;15.13;;;3.43;;
1404;SDS011;697;51.114;6.542;2022-12-29T12:08:21;9.20;;;1.30;;
1404;SDS011;697;51.114;6.542;2022-12-29T12:10:58;10.40;;;1.67;;
1404;SDS011;697;51.114;6.542;2022-12-29T12:13:33;16.63;;;2.07;;
1404;SDS011;697;51.114;6.542;2022-12-29T12:16:06;12.00;;;1.43;;
1404;SDS011;697;51.114;6.542;2022-12-29T12:18:39;8.23;;;1.50;;
1404;SDS011;697;51.114;6.542;2022-12-29T12:21:15;17.07;;;3.57;;
1404;SDS011;697;51.114;6.542;2022-12-29T12:24:07;10.73;;;1.83;;
1404;SDS011;697;51.114;6.542;2022-12-29T12:26:53;7.37;;;1.47;;
1404;SDS011;697;51.114;6.542;2022-12-29T12:29:26;10.50;;;1.27;;
1404;SDS011;697;51.114;6.542;2022-12-29T12:32:02;5.87;;;1.40;;
1404;SDS011;697;51.114;6.542;2022-12-29T12:34:37;16.77;;;1.80;;
1404;SDS011;697;51.114;6.542;2022-12-29T12:40:06;18.20;;;1.73;;
1404;SDS011;697;51.114;6.542;2022-12-29T12:42:48;14.23;;;1.47;;
1404;SDS011;697;51.114;6.542;2022-12-29T12:45:28;13.67;;;1.40;;
1404;SDS011;697;51.114;6.542;2022-12-29T12:48:05;5.30;;;1.20;;
1404;SDS011;697;51.114;6.542;2022-12-29T12:50:48;10.13;;;1.67;;
1404;SDS011;697;51.114;6.542;2022-12-29T12:56:32;7.30;;;1.70;;
1404;SDS011;697;51.114;6.542;2022-12-29T12:59:15;12.80;;;2.00;;
1404;SDS011;697;51.114;6.542;2022-12-29T13:01:51;11.70;;;1.57;;
1404;SDS011;697;51.114;6.542;2022-12-29T13:04:36;12.57;;;1.40;;
1404;SDS011;697;51.114;6.542;2022-12-29T13:07:22;9.13;;;1.67;;
1404;SDS011;697;51.114;6.542;2022-12-29T13:10:02;5.93;;;1.50;;
1404;SDS011;697;51.114;6.542;2022-12-29T13:12:47;5.10;;;1.20;;
1404;SDS011;697;51.114;6.542;2022-12-29T13:15:32;12.13;;;1.77;;
1404;SDS011;697;51.114;6.542;2022-12-29T13:18:11;10.30;;;1.47;;
1404;SDS011;697;51.114;6.542;2022-12-29T13:20:45;7.90;;;1.80;;
1404;SDS011;697;51.114;6.542;2022-12-29T13:23:21;11.43;;;1.30;;
1404;SDS011;697;51.114;6.542;2022-12-29T13:25:55;8.03;;;1.27;;
1404;SDS011;697;51.114;6.542;2022-12-29T13:28:34;11.10;;;1.87;;
1404;SDS011;697;51.114;6.542;2022-12-29T13:31:08;13.43;;;4.20;;
1404;SDS011;697;51.114;6.542;2022-12-29T13:33:43;9.73;;;1.47;;
1404;SDS011;697;51.114;6.542;2022-12-29T13:36:19;11.00;;;2.20;;
1404;SDS011;697;51.114;6.542;2022-12-29T13:38:51;7.67;;;1.40;;
1404;SDS011;697;51.114;6.542;2022-12-29T13:41:27;14.60;;;1.77;;
1404;SDS011;697;51.114;6.542;2022-12-29T13:44:02;7.83;;;1.60;;
1404;SDS011;697;51.114;6.542;2022-12-29T13:46:33;8.80;;;1.00;;
1404;SDS011;697;51.114;6.542;2022-12-29T13:49:07;7.83;;;1.50;;
1404;SDS011;697;51.114;6.542;2022-12-29T13:51:40;7.30;;;1.37;;
1404;SDS011;697;51.114;6.542;2022-12-29T13:54:14;8.93;;;1.40;;
1404;SDS011;697;51.114;6.542;2022-12-29T13:56:51;6.67;;;1.10;;
1404;SDS011;697;51.114;6.542;2022-12-29T13:59:26;5.43;;;1.53;;
1404;SDS011;697;51.114;6.542;2022-12-29T14:02:08;10.30;;;1.27;;
1404;SDS011;697;51.114;6.542;2022-12-29T14:04:55;8.30;;;1.23;;
1404;SDS011;697;51.114;6.542;2022-12-29T14:07:23;8.97;;;1.70;;
1404;SDS011;697;51.114;6.542;2022-12-29T14:09:51;6.20;;;1.40;;
1404;SDS011;697;51.114;6.542;2022-12-29T14:12:20;4.53;;;1.00;;
1404;SDS011;697;51.114;6.542;2022-12-29T14:17:59;11.70;;;1.47;;
1404;SDS011;697;51.114;6.542;2022-12-29T14:20:29;9.90;;;1.40;;
1404;SDS011;697;51.114;6.542;2022-12-29T14:22:58;12.50;;;1.63;;
1404;SDS011;697;51.114;6.542;2022-12-29T14:28:35;12.13;;;2.80;;
1404;SDS011;697;51.114;6.542;2022-12-29T14:31:21;10.53;;;2.83;;
1404;SDS011;697;51.114;6.542;2022-12-29T14:34:27;3.63;;;1.40;;
1404;SDS011;697;51.114;6.542;2022-12-29T14:36:56;2.30;;;1.20;;
1404;SDS011;697;51.114;6.542;2022-12-29T14:39:33;7.27;;;1.23;;
1404;SDS011;697;51.114;6.542;2022-12-29T14:42:03;5.00;;;1.43;;
1404;SDS011;697;51.114;6.542;2022-12-29T14:44:32;10.57;;;2.10;;
1404;SDS011;697;51.114;6.542;2022-12-29T14:47:01;3.90;;;1.67;;
1404;SDS011;697;51.114;6.542;2022-12-29T14:49:33;8.10;;;2.03;;
1404;SDS011;697;51.114;6.542;2022-12-29T14:52:12;4.73;;;1.30;;
1404;SDS011;697;51.114;6.542;2022-12-29T14:54:43;6.53;;;1.83;;
1404;SDS011;697;51.114;6.542;2022-12-29T14:57:19;7.17;;;1.30;;
1404;SDS011;697;51.114;6.542;2022-12-29T15:02:46;6.40;;;1.33;;
1404;SDS011;697;51.114;6.542;2022-12-29T15:10:31;7.70;;;1.53;;
1404;SDS011;697;51.114;6.542;2022-12-29T15:13:03;8.60;;;1.73;;
1404;SDS011;697;51.114;6.542;2022-12-29T15:15:35;6.00;;;2.00;;
1404;SDS011;697;51.114;6.542;2022-12-29T15:18:24;10.83;;;1.97;;
1404;SDS011;697;51.114;6.542;2022-12-29T15:20:53;7.47;;;1.40;;
1404;SDS011;697;51.114;6.542;2022-12-29T15:23:22;4.20;;;1.07;;
1404;SDS011;697;51.114;6.542;2022-12-29T15:25:53;5.10;;;1.03;;
1404;SDS011;697;51.114;6.542;2022-12-29T15:28:21;3.70;;;1.37;;
1404;SDS011;697;51.114;6.542;2022-12-29T15:30:53;6.10;;;1.30;;
1404;SDS011;697;51.114;6.542;2022-12-29T15:33:22;2.93;;;1.37;;
1404;SDS011;697;51.114;6.542;2022-12-29T15:35:53;5.17;;;1.37;;
1404;SDS011;697;51.114;6.542;2022-12-29T15:38:25;4.47;;;1.30;;
1404;SDS011;697;51.114;6.542;2022-12-29T15:40:54;4.70;;;1.37;;
1404;SDS011;697;51.114;6.542;2022-12-29T15:43:25;8.60;;;1.77;;
1404;SDS011;697;51.114;6.542;2022-12-29T15:46:00;5.13;;;1.87;;
1404;SDS011;697;51.114;6.542;2022-12-29T15:48:29;7.63;;;1.87;;
1404;SDS011;697;51.114;6.542;2022-12-29T15:51:01;9.37;;;2.50;;
1404;SDS011;697;51.114;6.542;2022-12-29T15:53:29;5.00;;;1.63;;
1404;SDS011;697;51.114;6.542;2022-12-29T15:56:00;10.30;;;2.70;;
1404;SDS011;697;51.114;6.542;2022-12-29T15:58:38;4.90;;;1.90;;
1404;SDS011;697;51.114;6.542;2022-12-29T16:01:15;5.97;;;1.50;;
1404;SDS011;697;51.114;6.542;2022-12-29T16:03:45;4.87;;;1.77;;
1404;SDS011;697;51.114;6.542;2022-12-29T16:06:26;10.33;;;1.87;;
1404;SDS011;697;51.114;6.542;2022-12-29T16:08:58;6.93;;;1.80;;
1404;SDS011;697;51.114;6.542;2022-12-29T16:11:28;8.40;;;1.80;;
1404;SDS011;697;51.114;6.542;2022-12-29T16:14:01;10.60;;;1.77;;
1404;SDS011;697;51.114;6.542;2022-12-29T16:16:33;11.53;;;2.53;;
1404;SDS011;697;51.114;6.542;2022-12-29T16:19:08;9.87;;;1.73;;
1404;SDS011;697;51.114;6.542;2022-12-29T16:21:38;7.63;;;1.90;;